Time;durP1;ratioP1;P1;durP2;ratioP2;P2;SDS_P1;SDS_P2;PMS_P1;PMS_P2;Temp;Humidity;BMP_temperature;BMP_pressure;BME280_temperature;BME280_humidity;BME280_pressure;Samples;Min_cycle;Max_cycle;Signal;HPM_P1;HPM_P2
2022/02/16 00:00:59;;;;;;;;;;;6.50;79.40;;;;;;5023033;28;87226;-48
2022/02/16 00:03:24;;;;;;;;;;;6.50;79.90;;;;;;5025613;28;88858;-45
2022/02/16 00:05:50;;;;;;;;;;;6.40;79.30;;;;;;5023332;28;86130;-44
2022/02/16 00:08:16;;;;;;;;;;;6.50;79.40;;;;;;5022927;28;88382;-45
2022/02/16 00:10:41;;;;;;;;;;;6.50;79.40;;;;;;5022913;28;88523;-44
2022/02/16 00:13:07;;;;;;;;;;;6.50;79.30;;;;;;5022332;28;88127;-48
2022/02/16 00:15:33;;;;;;;;;;;6.40;79.30;;;;;;5022990;28;88648;-48
2022/02/16 00:17:58;;;;;;;;;;;6.50;79.40;;;;;;5022411;28;89215;-47
2022/02/16 00:20:24;;;;;;;;;;;6.40;79.30;;;;;;5022796;28;86998;-45
2022/02/16 00:22:49;;;;;;;;;;;6.40;79.30;;;;;;5022663;28;88987;-48
2022/02/16 00:25:15;;;;;;;;;;;6.40;79.20;;;;;;5025247;28;89200;-48
2022/02/16 00:27:40;;;;;;;;;;;6.40;79.30;;;;;;5022847;28;88008;-45
2022/02/16 00:30:07;;;;;;;;;;;6.40;79.20;;;;;;5022879;28;89012;-46
2022/02/16 00:32:33;;;;;;;;;;;6.40;79.20;;;;;;5023492;28;86737;-46
2022/02/16 00:34:58;;;;;;;;;;;6.40;79.20;;;;;;5026001;28;87935;-47
2022/02/16 00:37:24;;;;;;;;;;;6.40;79.20;;;;;;5025111;28;90933;-48
2022/02/16 00:39:49;;;;;;;;;;;6.40;79.20;;;;;;5026093;28;87136;-48
2022/02/16 00:42:15;;;;;;;;;;;6.40;79.20;;;;;;5026012;28;88805;-45
2022/02/16 00:44:40;;;;;;;;;;;6.40;79.20;;;;;;5025468;28;89803;-46
2022/02/16 00:47:06;;;;;;;;;;;6.40;79.20;;;;;;5029044;28;87134;-44
2022/02/16 00:49:32;;;;;;;;;;;6.40;79.20;;;;;;5025732;28;89228;-49
2022/02/16 00:51:57;;;;;;;;;;;6.40;79.20;;;;;;5025657;28;87236;-46
2022/02/16 00:54:23;;;;;;;;;;;6.40;79.20;;;;;;5026356;28;89102;-48
2022/02/16 00:56:48;;;;;;;;;;;6.40;79.30;;;;;;5025550;28;88012;-46
2022/02/16 00:59:14;;;;;;;;;;;6.40;79.30;;;;;;5025863;28;86836;-46
2022/02/16 01:01:39;;;;;;;;;;;6.40;79.30;;;;;;5025313;28;88858;-49
2022/02/16 01:04:05;;;;;;;;;;;6.40;79.30;;;;;;5025196;28;90079;-47
2022/02/16 01:06:30;;;;;;;;;;;6.40;79.20;;;;;;5025434;28;87028;-46
2022/02/16 01:08:56;;;;;;;;;;;6.40;79.30;;;;;;5028172;28;89251;-45
2022/02/16 01:11:22;;;;;;;;;;;6.40;79.20;;;;;;5025666;28;87143;-48
2022/02/16 01:13:48;;;;;;;;;;;6.40;79.30;;;;;;5025593;28;88668;-45
2022/02/16 01:16:14;;;;;;;;;;;6.40;79.30;;;;;;5025183;28;89504;-50
2022/02/16 01:18:39;;;;;;;;;;;6.40;79.20;;;;;;5025962;28;86367;-48
2022/02/16 01:21:05;;;;;;;;;;;6.40;79.20;;;;;;5025421;28;88175;-48
2022/02/16 01:23:30;;;;;;;;;;;6.40;79.30;;;;;;5024910;28;90191;-48
2022/02/16 01:25:56;;;;;;;;;;;6.30;79.20;;;;;;5024917;28;88028;-46
2022/02/16 01:28:21;;;;;;;;;;;6.30;79.20;;;;;;5027852;28;89581;-44
2022/02/16 01:30:47;;;;;;;;;;;6.40;79.20;;;;;;5025515;28;87199;-48
2022/02/16 01:33:13;;;;;;;;;;;6.30;79.20;;;;;;5025366;28;88776;-48
2022/02/16 01:35:38;;;;;;;;;;;6.30;79.20;;;;;;5024768;28;88743;-46
2022/02/16 01:38:04;;;;;;;;;;;6.30;79.20;;;;;;5025008;28;86899;-47
2022/02/16 01:40:29;;;;;;;;;;;6.30;79.20;;;;;;5025381;28;87518;-48
2022/02/16 01:42:55;;;;;;;;;;;6.30;79.20;;;;;;5024918;28;88839;-48
2022/02/16 01:45:27;;;;;;;;;;;6.30;79.20;;;;;;5024973;28;86926;-46
2022/02/16 01:47:54;;;;;;;;;;;6.30;79.20;;;;;;5025109;28;88800;-46
2022/02/16 01:50:19;;;;;;;;;;;6.30;79.20;;;;;;5026594;28;90696;-47
2022/02/16 01:52:45;;;;;;;;;;;6.30;79.20;;;;;;5024931;28;89772;-47
2022/02/16 01:55:11;;;;;;;;;;;6.30;79.20;;;;;;5024494;28;89570;-49
2022/02/16 01:57:38;;;;;;;;;;;6.30;79.20;;;;;;5024928;28;87108;-46
2022/02/16 02:00:04;;;;;;;;;;;6.30;79.20;;;;;;5024768;28;88768;-47
2022/02/16 02:02:30;;;;;;;;;;;6.30;79.20;;;;;;5024310;28;89885;-47
2022/02/16 02:04:56;;;;;;;;;;;6.30;79.20;;;;;;5024672;28;87090;-43
2022/02/16 02:07:21;;;;;;;;;;;6.30;79.20;;;;;;5025316;28;88298;-45
2022/02/16 02:09:48;;;;;;;;;;;6.30;79.20;;;;;;5024233;28;89602;-51
2022/02/16 02:12:14;;;;;;;;;;;6.30;79.30;;;;;;5027561;28;87155;-44
2022/02/16 02:14:39;;;;;;;;;;;6.30;79.30;;;;;;5023504;28;90461;-45
2022/02/16 02:17:05;;;;;;;;;;;6.30;79.30;;;;;;5024536;28;87147;-45
2022/02/16 02:19:31;;;;;;;;;;;6.30;79.30;;;;;;5024339;28;88716;-46
2022/02/16 02:21:56;;;;;;;;;;;6.30;79.20;;;;;;5024189;28;89147;-44
2022/02/16 02:24:22;;;;;;;;;;;6.20;79.20;;;;;;5024321;28;87263;-47
2022/02/16 02:26:48;;;;;;;;;;;6.30;79.30;;;;;;5024552;28;89100;-46
2022/02/16 02:29:15;;;;;;;;;;;6.20;79.20;;;;;;5023965;28;89688;-46
2022/02/16 02:31:40;;;;;;;;;;;6.20;79.30;;;;;;5024673;28;86401;-48
2022/02/16 02:34:06;;;;;;;;;;;6.20;79.20;;;;;;5026895;28;88428;-47
2022/02/16 02:36:32;;;;;;;;;;;6.20;79.20;;;;;;5024439;28;87135;-48
2022/02/16 02:38:57;;;;;;;;;;;6.20;79.20;;;;;;5023714;28;88592;-48
2022/02/16 02:41:24;;;;;;;;;;;6.20;79.20;;;;;;5023867;28;89453;-43
2022/02/16 02:43:50;;;;;;;;;;;6.20;79.30;;;;;;5023249;28;87241;-44
2022/02/16 02:46:16;;;;;;;;;;;6.20;79.30;;;;;;5024057;28;88771;-47
2022/02/16 02:48:42;;;;;;;;;;;6.20;79.20;;;;;;5023661;28;89517;-48
2022/02/16 02:51:07;;;;;;;;;;;6.20;79.20;;;;;;5023915;28;87306;-45
2022/02/16 02:53:34;;;;;;;;;;;6.20;79.30;;;;;;5024242;28;88834;-45
2022/02/16 02:56:00;;;;;;;;;;;6.20;79.30;;;;;;5026347;28;88840;-46
2022/02/16 02:58:26;;;;;;;;;;;6.20;79.30;;;;;;5023931;28;87804;-44
2022/02/16 03:00:51;;;;;;;;;;;6.20;79.30;;;;;;5023412;28;89871;-44
2022/02/16 03:03:17;;;;;;;;;;;6.20;79.30;;;;;;5022982;28;88052;-44
2022/02/16 03:05:42;;;;;;;;;;;6.20;79.30;;;;;;5023765;28;90101;-47
2022/02/16 03:08:08;;;;;;;;;;;6.20;79.20;;;;;;5023355;28;90133;-47
2022/02/16 03:10:33;;;;;;;;;;;6.20;79.30;;;;;;5023765;28;86779;-47
2022/02/16 03:12:59;;;;;;;;;;;6.20;79.30;;;;;;5023715;28;88523;-45
2022/02/16 03:15:24;;;;;;;;;;;6.20;79.30;;;;;;5023362;28;89717;-47
2022/02/16 03:17:50;;;;;;;;;;;6.20;79.30;;;;;;5026507;28;86955;-45
2022/02/16 03:20:15;;;;;;;;;;;6.20;79.30;;;;;;5023595;28;88690;-44
2022/02/16 03:22:41;;;;;;;;;;;6.20;79.30;;;;;;5023440;28;87009;-45
2022/02/16 03:25:07;;;;;;;;;;;6.10;79.20;;;;;;5023669;28;87454;-44
2022/02/16 03:27:33;;;;;;;;;;;6.10;79.30;;;;;;5022577;28;91572;-44
2022/02/16 03:30:00;;;;;;;;;;;6.10;79.20;;;;;;5023506;28;87024;-48
2022/02/16 03:32:25;;;;;;;;;;;6.10;79.20;;;;;;5023361;28;88935;-47
2022/02/16 03:34:51;;;;;;;;;;;6.10;79.20;;;;;;5021551;28;91501;-46
2022/02/16 03:37:16;;;;;;;;;;;6.10;79.20;;;;;;5026244;28;87168;-48
2022/02/16 03:39:42;;;;;;;;;;;6.10;79.20;;;;;;5023191;28;89606;-48
2022/02/16 03:42:08;;;;;;;;;;;6.10;79.20;;;;;;5023220;28;87016;-47
2022/02/16 03:44:34;;;;;;;;;;;6.10;79.20;;;;;;5023508;28;88963;-47
2022/02/16 03:46:59;;;;;;;;;;;6.10;79.20;;;;;;5023021;28;89977;-46
2022/02/16 03:49:25;;;;;;;;;;;6.10;79.20;;;;;;5023195;28;87204;-46
2022/02/16 03:51:51;;;;;;;;;;;6.10;79.20;;;;;;5022801;28;89361;-46
2022/02/16 03:54:17;;;;;;;;;;;6.10;79.30;;;;;;5023146;28;89372;-45
2022/02/16 03:56:42;;;;;;;;;;;6.10;79.20;;;;;;5023317;28;87094;-46
2022/02/16 03:59:08;;;;;;;;;;;6.10;79.20;;;;;;5025851;28;89189;-46
2022/02/16 04:01:34;;;;;;;;;;;6.10;79.30;;;;;;5023045;28;86945;-45
2022/02/16 04:03:59;;;;;;;;;;;6.10;79.30;;;;;;5023052;28;87864;-47
2022/02/16 04:06:25;;;;;;;;;;;6.10;79.30;;;;;;5022638;28;89192;-48
2022/02/16 04:08:50;;;;;;;;;;;6.10;79.30;;;;;;5025785;28;86121;-45
2022/02/16 04:11:19;;;;;;;;;;;6.10;79.30;;;;;;5026640;28;88194;-45
2022/02/16 04:13:45;;;;;;;;;;;6.10;79.30;;;;;;5026102;28;89373;-47
2022/02/16 04:16:10;;;;;;;;;;;6.10;79.30;;;;;;5025912;28;87978;-45
2022/02/16 04:18:36;;;;;;;;;;;6.10;79.30;;;;;;5026457;28;89872;-45
2022/02/16 04:21:01;;;;;;;;;;;6.10;79.30;;;;;;5028932;28;90012;-46
2022/02/16 04:23:27;;;;;;;;;;;6.10;79.30;;;;;;5026423;28;89600;-45
2022/02/16 04:25:52;;;;;;;;;;;6.10;79.30;;;;;;5025961;28;89725;-48
2022/02/16 04:28:21;;;;;;;;;;;6.10;79.30;;;;;;5026209;28;87067;-45
2022/02/16 04:30:47;;;;;;;;;;;6.10;79.30;;;;;;5026208;28;89074;-44
2022/02/16 04:33:12;;;;;;;;;;;6.10;79.30;;;;;;5026272;28;88805;-45
2022/02/16 04:35:38;;;;;;;;;;;6.00;79.20;;;;;;5026185;28;87279;-45
2022/02/16 04:38:03;;;;;;;;;;;6.00;79.20;;;;;;5026209;28;88899;-46
2022/02/16 04:40:29;;;;;;;;;;;6.00;79.90;;;;;;5025159;28;90823;-45
2022/02/16 04:42:55;;;;;;;;;;;6.00;79.30;;;;;;5028187;28;87144;-48
2022/02/16 04:45:20;;;;;;;;;;;6.00;79.30;;;;;;5025444;28;89580;-45
2022/02/16 04:47:46;;;;;;;;;;;6.00;79.30;;;;;;5025901;28;86966;-47
2022/02/16 04:50:12;;;;;;;;;;;6.00;79.30;;;;;;5025841;28;88896;-44
2022/02/16 04:52:37;;;;;;;;;;;6.00;79.30;;;;;;5025474;28;89809;-46
2022/02/16 04:55:07;;;;;;;;;;;6.00;79.30;;;;;;5025924;28;87113;-43
2022/02/16 04:57:33;;;;;;;;;;;6.00;79.30;;;;;;5026275;28;89828;-49
2022/02/16 04:59:59;;;;;;;;;;;6.00;79.30;;;;;;5025457;28;88341;-47
2022/02/16 05:02:28;;;;;;;;;;;6.00;79.30;;;;;;5025727;28;86983;-46
2022/02/16 05:04:54;;;;;;;;;;;6.00;79.30;;;;;;5027410;28;88767;-47
2022/02/16 05:07:20;;;;;;;;;;;6.00;79.30;;;;;;5025627;28;87112;-47
2022/02/16 05:09:46;;;;;;;;;;;6.00;79.30;;;;;;5025728;28;88867;-46
2022/02/16 05:12:11;;;;;;;;;;;6.00;79.30;;;;;;5025232;28;89507;-47
2022/02/16 05:14:37;;;;;;;;;;;6.00;79.30;;;;;;5025518;28;87227;-44
2022/02/16 05:17:03;;;;;;;;;;;6.00;79.30;;;;;;5025475;28;88881;-47
2022/02/16 05:19:29;;;;;;;;;;;6.00;79.30;;;;;;5024390;28;89704;-48
2022/02/16 05:21:55;;;;;;;;;;;6.00;79.30;;;;;;5025957;28;86374;-46
2022/02/16 05:24:21;;;;;;;;;;;6.00;79.30;;;;;;5025358;28;87928;-45
2022/02/16 05:26:46;;;;;;;;;;;6.00;79.30;;;;;;5027961;28;89763;-44
2022/02/16 05:29:12;;;;;;;;;;;6.00;79.30;;;;;;5024724;28;87851;-47
2022/02/16 05:31:38;;;;;;;;;;;6.00;79.30;;;;;;5025043;28;89638;-45
2022/02/16 05:34:03;;;;;;;;;;;5.90;79.30;;;;;;5025018;28;87133;-44
2022/02/16 05:36:29;;;;;;;;;;;5.90;79.40;;;;;;5025388;28;88771;-48
2022/02/16 05:38:55;;;;;;;;;;;5.90;79.30;;;;;;5024981;28;88496;-47
2022/02/16 05:41:20;;;;;;;;;;;5.90;79.30;;;;;;5025060;28;87185;-47
2022/02/16 05:43:46;;;;;;;;;;;5.90;79.30;;;;;;5024690;28;87497;-45
2022/02/16 05:46:11;;;;;;;;;;;5.90;79.30;;;;;;5028140;28;88812;-45
2022/02/16 05:48:37;;;;;;;;;;;5.90;79.30;;;;;;5024873;28;88462;-45
2022/02/16 05:51:03;;;;;;;;;;;5.90;79.30;;;;;;5024526;28;89799;-46
2022/02/16 05:53:29;;;;;;;;;;;5.90;79.30;;;;;;5024503;28;88030;-46
2022/02/16 05:55:54;;;;;;;;;;;5.90;79.30;;;;;;5025107;28;89760;-46
2022/02/16 05:58:20;;;;;;;;;;;5.90;79.30;;;;;;5024432;28;89513;-45
2022/02/16 06:00:45;;;;;;;;;;;5.90;79.30;;;;;;5024985;28;87109;-44
2022/02/16 06:03:11;;;;;;;;;;;5.90;79.30;;;;;;5024792;28;88927;-44
2022/02/16 06:05:36;;;;;;;;;;;5.90;79.30;;;;;;5024380;28;89484;-45
2022/02/16 06:08:02;;;;;;;;;;;5.90;79.30;;;;;;5027628;28;86895;-44
2022/02/16 06:10:27;;;;;;;;;;;5.90;79.20;;;;;;5024940;28;88866;-48
2022/02/16 06:12:53;;;;;;;;;;;5.90;79.20;;;;;;5024718;28;87169;-45
2022/02/16 06:15:18;;;;;;;;;;;5.90;79.30;;;;;;5024566;28;88836;-45
2022/02/16 06:17:44;;;;;;;;;;;5.90;79.30;;;;;;5023624;28;90529;-45
2022/02/16 06:20:10;;;;;;;;;;;5.90;79.30;;;;;;5024204;28;87145;-47
2022/02/16 06:22:36;;;;;;;;;;;5.90;79.30;;;;;;5024542;28;88908;-46
2022/02/16 06:25:03;;;;;;;;;;;5.90;79.30;;;;;;5024129;28;89626;-48
2022/02/16 06:27:28;;;;;;;;;;;5.90;79.30;;;;;;5024390;28;87152;-44
2022/02/16 06:29:54;;;;;;;;;;;5.90;79.30;;;;;;5026308;28;89112;-44
2022/02/16 06:32:19;;;;;;;;;;;5.90;79.30;;;;;;5023800;28;87127;-48
2022/02/16 06:34:45;;;;;;;;;;;5.90;79.30;;;;;;5024570;28;89237;-45
2022/02/16 06:37:10;;;;;;;;;;;5.90;79.30;;;;;;5023843;28;89761;-45
2022/02/16 06:39:36;;;;;;;;;;;5.90;79.30;;;;;;5024427;28;87166;-47
2022/02/16 06:42:01;;;;;;;;;;;5.90;79.30;;;;;;5023592;28;89079;-46
2022/02/16 06:44:27;;;;;;;;;;;5.90;79.30;;;;;;5023452;28;90394;-48
2022/02/16 06:46:52;;;;;;;;;;;5.90;79.30;;;;;;5024077;28;87112;-48
2022/02/16 06:49:18;;;;;;;;;;;5.90;79.30;;;;;;5023930;28;88936;-45
2022/02/16 06:51:44;;;;;;;;;;;5.90;79.30;;;;;;5026695;28;90028;-47
2022/02/16 06:54:09;;;;;;;;;;;5.90;79.30;;;;;;5024089;28;88815;-45
2022/02/16 06:56:35;;;;;;;;;;;5.90;79.30;;;;;;5023483;28;89287;-45
2022/02/16 06:59:01;;;;;;;;;;;5.90;79.20;;;;;;5024457;28;86450;-46
2022/02/16 07:01:27;;;;;;;;;;;5.90;79.20;;;;;;5023953;28;88555;-45
2022/02/16 07:03:52;;;;;;;;;;;5.90;79.20;;;;;;5023306;28;89654;-43
2022/02/16 07:06:18;;;;;;;;;;;5.90;79.20;;;;;;5023118;28;88005;-44
2022/02/16 07:08:43;;;;;;;;;;;5.90;79.20;;;;;;5023884;28;89913;-47
2022/02/16 07:11:09;;;;;;;;;;;5.90;79.20;;;;;;5023398;28;89980;-48
2022/02/16 07:13:34;;;;;;;;;;;5.90;79.20;;;;;;5026842;28;86931;-45
2022/02/16 07:16:00;;;;;;;;;;;5.90;79.20;;;;;;5023494;28;88890;-44
2022/02/16 07:18:29;;;;;;;;;;;5.90;79.20;;;;;;5023526;28;87179;-48
2022/02/16 07:20:55;;;;;;;;;;;5.90;79.30;;;;;;5023754;28;89174;-45
2022/02/16 07:23:20;;;;;;;;;;;5.90;79.30;;;;;;5023637;28;87895;-47
2022/02/16 07:25:46;;;;;;;;;;;5.90;79.30;;;;;;5023577;28;87072;-44
2022/02/16 07:28:12;;;;;;;;;;;5.90;79.30;;;;;;5023614;28;88625;-44
2022/02/16 07:30:37;;;;;;;;;;;5.90;79.30;;;;;;5022465;28;90534;-46
2022/02/16 07:33:03;;;;;;;;;;;5.90;79.30;;;;;;5023344;28;86964;-48
2022/02/16 07:35:28;;;;;;;;;;;5.90;79.30;;;;;;5025890;28;88926;-46
2022/02/16 07:37:55;;;;;;;;;;;6.00;79.40;;;;;;5023408;28;87147;-47
2022/02/16 07:40:21;;;;;;;;;;;5.90;79.30;;;;;;5023344;28;88786;-48
2022/02/16 07:42:46;;;;;;;;;;;5.90;79.30;;;;;;5022252;28;89531;-44
2022/02/16 07:45:12;;;;;;;;;;;5.90;79.30;;;;;;5023330;28;87015;-48
2022/02/16 07:47:38;;;;;;;;;;;5.90;79.40;;;;;;5023790;28;89201;-47
2022/02/16 07:50:04;;;;;;;;;;;5.90;79.40;;;;;;5022817;28;89279;-44
2022/02/16 07:52:31;;;;;;;;;;;5.90;79.40;;;;;;5023284;28;87126;-45
2022/02/16 07:54:58;;;;;;;;;;;5.90;79.40;;;;;;5025233;28;88715;-48
2022/02/16 07:57:23;;;;;;;;;;;5.90;79.40;;;;;;5023166;28;87383;-46
2022/02/16 07:59:49;;;;;;;;;;;6.00;79.50;;;;;;5023184;28;89207;-47
2022/02/16 08:02:15;;;;;;;;;;;5.90;79.40;;;;;;5022818;28;88484;-48
2022/02/16 08:04:40;;;;;;;;;;;5.90;79.40;;;;;;5022822;28;87295;-48
2022/02/16 08:07:06;;;;;;;;;;;5.90;79.50;;;;;;5023543;28;86978;-47
2022/02/16 08:09:32;;;;;;;;;;;5.90;79.50;;;;;;5022864;28;89635;-45
2022/02/16 08:11:57;;;;;;;;;;;5.90;79.50;;;;;;5023411;28;86361;-46
2022/02/16 08:14:23;;;;;;;;;;;5.90;79.50;;;;;;5022933;28;88249;-45
2022/02/16 08:16:48;;;;;;;;;;;5.90;79.50;;;;;;5025328;28;89432;-46
2022/02/16 08:19:14;;;;;;;;;;;5.90;79.50;;;;;;5022165;28;89262;-45
2022/02/16 08:21:41;;;;;;;;;;;5.90;79.60;;;;;;5022495;28;88624;-45
2022/02/16 08:24:07;;;;;;;;;;;6.00;79.60;;;;;;5022864;28;87150;-47
2022/02/16 08:26:33;;;;;;;;;;;5.90;79.60;;;;;;5022753;28;88831;-48
2022/02/16 08:28:58;;;;;;;;;;;6.00;79.60;;;;;;5022439;28;88381;-47
2022/02/16 08:31:24;;;;;;;;;;;6.00;79.70;;;;;;5022738;28;87289;-48
2022/02/16 08:33:50;;;;;;;;;;;6.00;79.70;;;;;;5022519;28;88933;-44
2022/02/16 08:36:15;;;;;;;;;;;6.00;79.70;;;;;;5022809;28;88925;-48
2022/02/16 08:38:42;;;;;;;;;;;6.00;79.70;;;;;;5025619;28;87078;-48
2022/02/16 08:41:08;;;;;;;;;;;6.00;79.80;;;;;;5022432;28;88025;-48
2022/02/16 08:43:33;;;;;;;;;;;6.00;79.70;;;;;;5021424;28;87974;-46
2022/02/16 08:45:59;;;;;;;;;;;6.00;79.70;;;;;;5022509;28;89751;-46
2022/02/16 08:48:25;;;;;;;;;;;6.00;79.70;;;;;;5021997;28;89463;-47
2022/02/16 08:50:51;;;;;;;;;;;6.00;79.60;;;;;;5022530;28;87123;-44
2022/02/16 08:53:17;;;;;;;;;;;6.00;79.70;;;;;;5022474;28;88743;-44
2022/02/16 08:55:43;;;;;;;;;;;6.00;79.80;;;;;;5025412;28;89814;-48
2022/02/16 08:58:09;;;;;;;;;;;6.00;79.70;;;;;;5025851;28;87191;-45
2022/02/16 09:00:36;;;;;;;;;;;6.00;79.70;;;;;;5028907;28;89277;-47
2022/02/16 09:03:01;;;;;;;;;;;6.00;79.60;;;;;;5025479;28;87196;-45
2022/02/16 09:05:27;;;;;;;;;;;6.00;79.60;;;;;;5025567;28;89210;-46
2022/02/16 09:07:52;;;;;;;;;;;6.00;79.60;;;;;;5024787;28;90656;-45
2022/02/16 09:10:18;;;;;;;;;;;6.00;79.60;;;;;;5025676;28;87378;-47
2022/02/16 09:12:43;;;;;;;;;;;6.00;79.60;;;;;;5025675;28;88897;-44
2022/02/16 09:15:09;;;;;;;;;;;6.00;79.50;;;;;;5025112;28;89045;-47
2022/02/16 09:17:35;;;;;;;;;;;6.10;79.50;;;;;;5025457;28;87052;-45
2022/02/16 09:20:00;;;;;;;;;;;6.10;79.40;;;;;;5025650;28;87382;-47
2022/02/16 09:22:27;;;;;;;;;;;6.10;79.20;;;;;;5028325;28;87220;-47
2022/02/16 09:24:53;;;;;;;;;;;6.10;79.10;;;;;;5025963;28;88911;-47
2022/02/16 09:27:19;;;;;;;;;;;6.10;79.10;;;;;;5025194;28;88576;-45
2022/02/16 09:29:45;;;;;;;;;;;6.10;79.00;;;;;;5025429;28;87111;-45
2022/02/16 09:32:11;;;;;;;;;;;6.10;79.00;;;;;;5024665;28;88838;-45
2022/02/16 09:34:37;;;;;;;;;;;6.10;79.20;;;;;;5024829;28;89834;-46
2022/02/16 09:37:03;;;;;;;;;;;6.20;79.30;;;;;;5025188;28;87002;-48
2022/02/16 09:39:29;;;;;;;;;;;6.20;79.40;;;;;;5025363;28;88951;-44
2022/02/16 09:41:55;;;;;;;;;;;6.20;79.50;;;;;;5024884;28;89658;-48
2022/02/16 09:44:46;;;;;;;;;;;6.20;79.30;;;;;;5027842;28;86768;-46
2022/02/16 09:47:13;;;;;;;;;;;6.20;79.30;;;;;;5019699;27;89423;-46
2022/02/16 09:49:39;;;;;;;;;;;6.20;79.40;;;;;;5025761;28;86496;-48
2022/02/16 09:52:05;;;;;;;;;;;6.20;79.30;;;;;;5025012;28;88432;-48
2022/02/16 09:54:31;;;;;;;;;;;6.20;79.40;;;;;;5024668;28;91044;-49
2022/02/16 09:56:57;;;;;;;;;;;6.20;79.40;;;;;;5024485;28;88104;-47
2022/02/16 09:59:22;;;;;;;;;;;6.20;79.50;;;;;;5025037;28;88662;-48
2022/02/16 10:01:51;;;;;;;;;;;6.20;79.40;;;;;;5024438;28;90052;-48
2022/02/16 10:04:17;;;;;;;;;;;6.30;79.70;;;;;;5027619;28;87021;-45
2022/02/16 10:06:48;;;;;;;;;;;6.30;79.70;;;;;;5024477;28;89659;-46
2022/02/16 10:09:27;;;;;;;;;;;6.30;79.80;;;;;;5024970;28;86886;-46
2022/02/16 10:11:57;;;;;;;;;;;6.30;79.90;;;;;;5024707;28;89285;-45
2022/02/16 10:14:24;;;;;;;;;;;6.30;80.60;;;;;;5025032;28;87738;-45
2022/02/16 10:16:50;;;;;;;;;;;6.30;80.00;;;;;;5024553;28;87143;-44
2022/02/16 10:19:15;;;;;;;;;;;6.30;80.00;;;;;;5024985;28;87450;-44
2022/02/16 10:21:59;;;;;;;;;;;6.30;80.00;;;;;;5023526;28;90642;-44
2022/02/16 10:24:25;;;;;;;;;;;6.30;80.10;;;;;;5024497;28;86797;-48
2022/02/16 10:26:51;;;;;;;;;;;6.30;80.20;;;;;;5026836;28;89333;-48
2022/02/16 10:29:18;;;;;;;;;;;6.30;80.30;;;;;;5024383;28;86858;-45
2022/02/16 10:31:44;;;;;;;;;;;6.30;80.40;;;;;;5024389;28;88733;-47
2022/02/16 10:34:09;;;;;;;;;;;6.30;80.30;;;;;;5024037;28;90127;-46
2022/02/16 10:36:35;;;;;;;;;;;6.30;80.50;;;;;;5024345;28;87183;-47
2022/02/16 10:39:01;;;;;;;;;;;6.40;80.50;;;;;;5024704;28;88807;-45
2022/02/16 10:41:30;;;;;;;;;;;6.30;80.60;;;;;;5023733;28;89500;-44
2022/02/16 10:43:59;;;;;;;;;;;6.30;80.80;;;;;;5023783;28;86868;-48
2022/02/16 10:46:29;;;;;;;;;;;6.40;80.70;;;;;;5023519;28;88747;-46
2022/02/16 10:49:09;;;;;;;;;;;6.40;80.70;;;;;;5026569;28;89382;-45
2022/02/16 10:51:35;;;;;;;;;;;6.30;80.80;;;;;;5024116;28;88818;-45
2022/02/16 10:54:10;;;;;;;;;;;6.40;80.80;;;;;;5023426;28;89340;-46
2022/02/16 10:56:36;;;;;;;;;;;6.40;80.80;;;;;;5023950;28;87087;-48
2022/02/16 10:59:02;;;;;;;;;;;6.40;80.90;;;;;;5023883;28;89026;-48
2022/02/16 11:01:27;;;;;;;;;;;6.40;80.80;;;;;;5023421;28;90180;-44
2022/02/16 11:03:53;;;;;;;;;;;6.40;80.90;;;;;;5024296;28;86450;-45
2022/02/16 11:06:20;;;;;;;;;;;6.50;80.80;;;;;;5023903;28;88513;-46
2022/02/16 11:08:46;;;;;;;;;;;6.50;81.00;;;;;;5023401;28;89821;-47
2022/02/16 11:11:14;;;;;;;;;;;6.50;80.90;;;;;;5026388;28;87977;-45
2022/02/16 11:13:41;;;;;;;;;;;6.50;81.00;;;;;;5023537;28;89368;-46
2022/02/16 11:16:06;;;;;;;;;;;6.50;81.00;;;;;;5023169;28;87197;-46
2022/02/16 11:18:43;;;;;;;;;;;6.50;81.00;;;;;;5023467;28;89266;-48
2022/02/16 11:21:14;;;;;;;;;;;6.50;81.10;;;;;;5023242;28;89376;-46
2022/02/16 11:23:44;;;;;;;;;;;6.60;81.10;;;;;;5023816;28;87230;-47
2022/02/16 11:26:29;;;;;;;;;;;6.60;81.10;;;;;;5023787;28;88997;-46
2022/02/16 11:28:55;;;;;;;;;;;6.60;81.20;;;;;;5023859;28;88673;-45
2022/02/16 11:31:28;;;;;;;;;;;6.60;81.10;;;;;;5023523;28;87123;-46
2022/02/16 11:34:11;;;;;;;;;;;6.60;81.10;;;;;;5026189;28;88954;-45
2022/02/16 11:37:02;;;;;;;;;;;6.70;81.10;;;;;;5022733;28;88099;-44
2022/02/16 11:39:46;;;;;;;;;;;6.70;81.10;;;;;;5017830;27;90100;-48
2022/02/16 11:42:13;;;;;;;;;;;6.70;81.30;;;;;;5023028;28;88348;-46
2022/02/16 11:44:50;;;;;;;;;;;6.70;81.20;;;;;;5023065;28;87220;-45
2022/02/16 11:47:34;;;;;;;;;;;6.70;81.00;;;;;;5023529;28;88779;-45
2022/02/16 11:50:00;;;;;;;;;;;6.80;81.20;;;;;;5022951;28;89214;-46
2022/02/16 11:52:35;;;;;;;;;;;6.80;81.40;;;;;;5022966;28;87127;-46
2022/02/16 11:55:00;;;;;;;;;;;6.80;81.20;;;;;;5026275;28;87864;-49
2022/02/16 11:57:45;;;;;;;;;;;6.80;81.30;;;;;;5023152;28;87121;-48
2022/02/16 12:00:11;;;;;;;;;;;6.80;81.50;;;;;;5023239;28;89060;-46
2022/02/16 12:03:02;;;;;;;;;;;6.80;81.40;;;;;;5022047;28;90354;-47
2022/02/16 12:05:49;;;;;;;;;;;6.80;81.60;;;;;;5023377;28;87111;-45
2022/02/16 12:08:16;;;;;;;;;;;6.90;81.50;;;;;;5022897;28;88768;-47
2022/02/16 12:10:45;;;;;;;;;;;6.90;81.50;;;;;;5022721;28;89303;-45
2022/02/16 12:13:11;;;;;;;;;;;6.90;81.40;;;;;;5023028;28;87147;-45
2022/02/16 12:15:37;;;;;;;;;;;6.90;81.40;;;;;;5023004;28;88848;-45
2022/02/16 12:18:02;;;;;;;;;;;6.90;81.80;;;;;;5025476;28;89989;-46
2022/02/16 12:20:28;;;;;;;;;;;6.90;81.80;;;;;;5023679;28;87025;-48
2022/02/16 12:23:00;;;;;;;;;;;6.90;81.80;;;;;;5022408;28;89191;-47
2022/02/16 12:25:25;;;;;;;;;;;6.90;81.80;;;;;;5022971;28;86935;-48
2022/02/16 12:27:51;;;;;;;;;;;7.00;81.60;;;;;;5022088;28;89100;-47
2022/02/16 12:30:16;;;;;;;;;;;7.00;81.50;;;;;;5025303;28;89669;-47
2022/02/16 12:32:45;;;;;;;;;;;7.00;81.50;;;;;;5026254;28;87158;-48
2022/02/16 12:35:11;;;;;;;;;;;7.00;81.60;;;;;;5026303;27;87427;-45
2022/02/16 12:37:38;;;;;;;;;;;7.00;81.70;;;;;;5025891;28;89429;-45
2022/02/16 12:40:05;;;;;;;;;;;7.00;81.60;;;;;;5029192;28;87129;-45
2022/02/16 12:42:32;;;;;;;;;;;7.00;81.80;;;;;;5025380;28;89695;-44
2022/02/16 12:44:58;;;;;;;;;;;7.10;81.70;;;;;;5026835;28;86302;-47
2022/02/16 12:47:25;;;;;;;;;;;7.10;81.60;;;;;;5026152;28;88071;-49
2022/02/16 12:49:52;;;;;;;;;;;7.10;81.70;;;;;;5025695;28;89340;-45
2022/02/16 12:52:19;;;;;;;;;;;7.10;81.80;;;;;;5025645;28;88069;-46
2022/02/16 12:54:45;;;;;;;;;;;7.10;81.90;;;;;;5025957;28;89921;-48
2022/02/16 12:57:13;;;;;;;;;;;7.10;81.80;;;;;;5025458;28;90105;-48
2022/02/16 13:02:30;;;;;;;;;;;7.10;81.90;;;;;;5027031;28;86881;-46
2022/02/16 13:04:57;;;;;;;;;;;7.20;81.90;;;;;;5025609;28;87111;-47
2022/02/16 13:07:23;;;;;;;;;;;7.10;81.90;;;;;;5025721;28;89139;-46
2022/02/16 13:09:49;;;;;;;;;;;7.20;82.10;;;;;;5026009;28;87400;-44
2022/02/16 13:12:34;;;;;;;;;;;7.20;82.20;;;;;;5025609;28;87013;-46
2022/02/16 13:15:04;;;;;;;;;;;7.20;82.00;;;;;;5026112;28;89128;-47
2022/02/16 13:17:31;;;;;;;;;;;7.20;82.00;;;;;;5024530;28;90260;-47
2022/02/16 13:19:56;;;;;;;;;;;7.20;82.00;;;;;;5025495;28;87126;-45
2022/02/16 13:22:23;;;;;;;;;;;7.20;82.10;;;;;;5025294;28;89093;-44
2022/02/16 13:24:50;;;;;;;;;;;7.20;82.00;;;;;;5027983;28;89279;-47
2022/02/16 13:27:15;;;;;;;;;;;7.30;82.20;;;;;;5025539;28;88929;-47
2022/02/16 13:29:41;;;;;;;;;;;7.20;82.20;;;;;;5025085;28;89621;-49
2022/02/16 13:32:06;;;;;;;;;;;7.30;82.40;;;;;;5025366;28;87132;-45
2022/02/16 13:34:48;;;;;;;;;;;7.30;82.20;;;;;;5025684;28;88735;-45
2022/02/16 13:37:14;;;;;;;;;;;7.30;82.10;;;;;;5024760;28;89463;-46
2022/02/16 13:39:39;;;;;;;;;;;7.30;82.10;;;;;;5024923;28;87285;-46
2022/02/16 13:42:05;;;;;;;;;;;7.30;82.20;;;;;;5024996;28;88028;-49
2022/02/16 13:44:35;;;;;;;;;;;7.40;82.30;;;;;;5024475;28;90294;-47
2022/02/16 13:47:04;;;;;;;;;;;7.40;82.30;;;;;;5028007;28;87131;-45
2022/02/16 13:49:31;;;;;;;;;;;7.30;82.30;;;;;;5024574;28;89499;-48
2022/02/16 13:51:58;;;;;;;;;;;7.40;82.30;;;;;;5025154;28;87045;-45
2022/02/16 13:54:25;;;;;;;;;;;7.40;82.40;;;;;;5025269;28;89081;-46
2022/02/16 13:56:52;;;;;;;;;;;7.40;82.40;;;;;;5024633;28;89637;-44
2022/02/16 13:59:17;;;;;;;;;;;7.40;82.50;;;;;;5025719;28;86343;-48
2022/02/16 14:01:43;;;;;;;;;;;7.40;82.40;;;;;;5025024;28;88298;-44
2022/02/16 14:04:09;;;;;;;;;;;7.40;82.50;;;;;;5024244;28;89547;-45
2022/02/16 14:06:35;;;;;;;;;;;7.40;82.50;;;;;;5027360;28;87978;-44
2022/02/16 14:09:03;;;;;;;;;;;7.40;82.40;;;;;;5024488;28;89384;-44
2022/02/16 14:11:29;;;;;;;;;;;7.50;82.60;;;;;;5024825;28;87049;-47
2022/02/16 14:13:55;;;;;;;;;;;7.40;82.50;;;;;;5024707;28;88539;-46
2022/02/16 14:16:21;;;;;;;;;;;7.50;82.50;;;;;;5024229;28;90402;-47
2022/02/16 14:19:34;;;;;;;;;;;7.50;82.40;;;;;;5024325;28;88188;-47
2022/02/16 14:21:35;;;;;;;;;;;7.50;82.40;;;;;;5013171;28;87225;-48
2022/02/16 14:24:01;;;;;;;;;;;7.50;82.40;;;;;;5024534;28;88991;-48
2022/02/16 14:26:27;;;;;;;;;;;7.60;82.40;;;;;;5024473;28;87136;-44
2022/02/16 14:28:53;;;;;;;;;;;7.60;82.40;;;;;;5027191;28;88626;-48
2022/02/16 14:31:18;;;;;;;;;;;7.60;82.40;;;;;;5023698;28;88601;-46